sensor_id;sensor_type;location;lat;lon;timestamp;temperature;humidity
40153;DHT22;26371;56.992;23.912;2023-11-19T00:00:27;-0.40;99.90
40153;DHT22;26371;56.992;23.912;2023-11-19T00:02:56;-0.50;99.90
40153;DHT22;26371;56.992;23.912;2023-11-19T00:05:26;-0.50;99.90
40153;DHT22;26371;56.992;23.912;2023-11-19T00:07:56;-0.50;99.90
40153;DHT22;26371;56.992;23.912;2023-11-19T00:10:24;-0.40;99.90
40153;DHT22;26371;56.992;23.912;2023-11-19T00:12:53;-0.40;99.90
40153;DHT22;26371;56.992;23.912;2023-11-19T00:15:24;-0.40;99.90
40153;DHT22;26371;56.992;23.912;2023-11-19T00:17:53;-0.40;99.90
40153;DHT22;26371;56.992;23.912;2023-11-19T00:20:26;-0.40;99.90
40153;DHT22;26371;56.992;23.912;2023-11-19T00:22:56;-0.50;99.90
40153;DHT22;26371;56.992;23.912;2023-11-19T00:25:25;-0.50;99.90
40153;DHT22;26371;56.992;23.912;2023-11-19T00:27:53;-0.50;99.90
40153;DHT22;26371;56.992;23.912;2023-11-19T00:30:24;-0.50;99.90
40153;DHT22;26371;56.992;23.912;2023-11-19T00:32:53;-0.40;99.90
40153;DHT22;26371;56.992;23.912;2023-11-19T00:35:22;-0.50;99.90
40153;DHT22;26371;56.992;23.912;2023-11-19T00:37:52;-0.40;99.90
40153;DHT22;26371;56.992;23.912;2023-11-19T00:40:21;-0.50;99.90
40153;DHT22;26371;56.992;23.912;2023-11-19T00:42:51;-0.40;99.90
40153;DHT22;26371;56.992;23.912;2023-11-19T00:45:19;-0.40;99.90
40153;DHT22;26371;56.992;23.912;2023-11-19T00:47:48;-0.40;99.90
40153;DHT22;26371;56.992;23.912;2023-11-19T00:50:17;-0.40;99.90
40153;DHT22;26371;56.992;23.912;2023-11-19T00:52:46;-0.40;99.90
40153;DHT22;26371;56.992;23.912;2023-11-19T00:55:16;-0.40;99.90
40153;DHT22;26371;56.992;23.912;2023-11-19T00:57:45;-0.40;99.90
40153;DHT22;26371;56.992;23.912;2023-11-19T01:00:14;-0.40;99.90
40153;DHT22;26371;56.992;23.912;2023-11-19T01:02:47;-0.40;99.90
40153;DHT22;26371;56.992;23.912;2023-11-19T01:05:19;-0.40;99.90
40153;DHT22;26371;56.992;23.912;2023-11-19T01:07:50;-0.40;99.90
40153;DHT22;26371;56.992;23.912;2023-11-19T01:10:23;-0.40;99.90
40153;DHT22;26371;56.992;23.912;2023-11-19T01:12:53;-0.40;99.90
40153;DHT22;26371;56.992;23.912;2023-11-19T01:15:22;-0.40;99.90
40153;DHT22;26371;56.992;23.912;2023-11-19T01:17:51;-0.40;99.90
40153;DHT22;26371;56.992;23.912;2023-11-19T01:20:20;-0.40;99.90
40153;DHT22;26371;56.992;23.912;2023-11-19T01:22:49;-0.50;99.90
40153;DHT22;26371;56.992;23.912;2023-11-19T01:25:19;-0.40;99.90
40153;DHT22;26371;56.992;23.912;2023-11-19T01:27:49;-0.40;99.90
40153;DHT22;26371;56.992;23.912;2023-11-19T01:30:18;-0.40;99.90
40153;DHT22;26371;56.992;23.912;2023-11-19T01:32:49;-0.50;99.90
40153;DHT22;26371;56.992;23.912;2023-11-19T01:35:18;-0.50;99.90
40153;DHT22;26371;56.992;23.912;2023-11-19T01:37:46;-0.50;99.90
40153;DHT22;26371;56.992;23.912;2023-11-19T01:40:15;-0.40;99.90
40153;DHT22;26371;56.992;23.912;2023-11-19T01:42:44;-0.40;99.90
40153;DHT22;26371;56.992;23.912;2023-11-19T01:45:22;-0.40;99.90
40153;DHT22;26371;56.992;23.912;2023-11-19T01:47:56;-0.40;99.90
40153;DHT22;26371;56.992;23.912;2023-11-19T01:50:25;-0.40;99.90
40153;DHT22;26371;56.992;23.912;2023-11-19T01:52:54;-0.40;99.90
40153;DHT22;26371;56.992;23.912;2023-11-19T01:55:26;-0.30;99.90
40153;DHT22;26371;56.992;23.912;2023-11-19T01:57:59;-0.30;99.90
40153;DHT22;26371;56.992;23.912;2023-11-19T02:00:31;-0.30;99.90
40153;DHT22;26371;56.992;23.912;2023-11-19T02:03:02;-0.30;99.90
40153;DHT22;26371;56.992;23.912;2023-11-19T02:05:34;-0.40;99.90
40153;DHT22;26371;56.992;23.912;2023-11-19T02:08:03;-0.40;99.90
40153;DHT22;26371;56.992;23.912;2023-11-19T02:10:32;-0.40;99.90
40153;DHT22;26371;56.992;23.912;2023-11-19T02:13:01;-0.40;99.90
40153;DHT22;26371;56.992;23.912;2023-11-19T02:15:34;-0.40;99.90
40153;DHT22;26371;56.992;23.912;2023-11-19T02:18:27;-0.40;99.90
40153;DHT22;26371;56.992;23.912;2023-11-19T02:20:57;-0.40;99.90
40153;DHT22;26371;56.992;23.912;2023-11-19T02:23:27;-0.40;99.90
40153;DHT22;26371;56.992;23.912;2023-11-19T02:26:05;-0.40;99.90
40153;DHT22;26371;56.992;23.912;2023-11-19T02:28:37;-0.40;99.90
40153;DHT22;26371;56.992;23.912;2023-11-19T02:31:07;-0.40;99.90
40153;DHT22;26371;56.992;23.912;2023-11-19T02:33:37;-0.40;99.90
40153;DHT22;26371;56.992;23.912;2023-11-19T02:36:08;-0.40;99.90
40153;DHT22;26371;56.992;23.912;2023-11-19T02:38:37;-0.40;99.90
40153;DHT22;26371;56.992;23.912;2023-11-19T02:41:06;-0.40;99.90
40153;DHT22;26371;56.992;23.912;2023-11-19T02:43:37;-0.40;99.90
40153;DHT22;26371;56.992;23.912;2023-11-19T02:46:06;-0.40;99.90
40153;DHT22;26371;56.992;23.912;2023-11-19T02:48:38;-0.50;99.90
40153;DHT22;26371;56.992;23.912;2023-11-19T02:51:07;-0.50;99.90
40153;DHT22;26371;56.992;23.912;2023-11-19T02:53:38;-0.50;99.90
40153;DHT22;26371;56.992;23.912;2023-11-19T02:56:08;-0.50;99.90
40153;DHT22;26371;56.992;23.912;2023-11-19T02:58:54;-0.50;99.90
40153;DHT22;26371;56.992;23.912;2023-11-19T03:01:24;-0.50;99.90
40153;DHT22;26371;56.992;23.912;2023-11-19T03:03:59;-0.50;99.90
40153;DHT22;26371;56.992;23.912;2023-11-19T03:06:30;-0.50;99.90
40153;DHT22;26371;56.992;23.912;2023-11-19T03:08:59;-0.50;99.90
40153;DHT22;26371;56.992;23.912;2023-11-19T03:11:33;-0.50;99.90
40153;DHT22;26371;56.992;23.912;2023-11-19T03:14:04;-0.50;99.90
40153;DHT22;26371;56.992;23.912;2023-11-19T03:16:32;-0.60;99.90
40153;DHT22;26371;56.992;23.912;2023-11-19T03:19:01;-0.60;99.90
40153;DHT22;26371;56.992;23.912;2023-11-19T03:21:32;-0.60;99.90
40153;DHT22;26371;56.992;23.912;2023-11-19T03:24:01;-0.60;99.90
40153;DHT22;26371;56.992;23.912;2023-11-19T03:26:30;-0.60;99.90
40153;DHT22;26371;56.992;23.912;2023-11-19T03:29:03;-0.50;99.90
40153;DHT22;26371;56.992;23.912;2023-11-19T03:31:32;-0.60;99.90
40153;DHT22;26371;56.992;23.912;2023-11-19T03:34:00;-0.60;99.90
40153;DHT22;26371;56.992;23.912;2023-11-19T03:36:33;-0.50;99.90
40153;DHT22;26371;56.992;23.912;2023-11-19T03:39:02;-0.50;99.90
40153;DHT22;26371;56.992;23.912;2023-11-19T03:41:31;-0.50;99.90
40153;DHT22;26371;56.992;23.912;2023-11-19T03:44:04;-0.50;99.90
40153;DHT22;26371;56.992;23.912;2023-11-19T03:46:33;-0.60;99.90
40153;DHT22;26371;56.992;23.912;2023-11-19T03:49:02;-0.60;99.90
40153;DHT22;26371;56.992;23.912;2023-11-19T03:51:33;-0.60;99.90
40153;DHT22;26371;56.992;23.912;2023-11-19T03:54:02;-0.60;99.90
40153;DHT22;26371;56.992;23.912;2023-11-19T03:56:31;-0.60;99.90
40153;DHT22;26371;56.992;23.912;2023-11-19T03:59:00;-0.50;99.90
40153;DHT22;26371;56.992;23.912;2023-11-19T04:01:30;-0.60;99.90
40153;DHT22;26371;56.992;23.912;2023-11-19T04:03:59;-0.60;99.90
40153;DHT22;26371;56.992;23.912;2023-11-19T04:06:28;-0.60;99.90
40153;DHT22;26371;56.992;23.912;2023-11-19T04:08:56;-0.60;99.90
40153;DHT22;26371;56.992;23.912;2023-11-19T04:11:25;-0.50;99.90
40153;DHT22;26371;56.992;23.912;2023-11-19T04:13:54;-0.60;99.90
40153;DHT22;26371;56.992;23.912;2023-11-19T04:16:26;-0.60;99.90
40153;DHT22;26371;56.992;23.912;2023-11-19T04:18:58;-0.50;99.90
40153;DHT22;26371;56.992;23.912;2023-11-19T04:21:27;-0.50;99.90
40153;DHT22;26371;56.992;23.912;2023-11-19T04:23:55;-0.50;99.90
40153;DHT22;26371;56.992;23.912;2023-11-19T04:26:24;-0.60;99.90
40153;DHT22;26371;56.992;23.912;2023-11-19T04:28:53;-0.50;99.90
40153;DHT22;26371;56.992;23.912;2023-11-19T04:31:21;-0.50;99.90
40153;DHT22;26371;56.992;23.912;2023-11-19T04:33:53;-0.50;99.90
40153;DHT22;26371;56.992;23.912;2023-11-19T04:36:24;-0.50;99.90
40153;DHT22;26371;56.992;23.912;2023-11-19T04:38:52;-0.50;99.90
40153;DHT22;26371;56.992;23.912;2023-11-19T04:41:21;-0.50;99.90
40153;DHT22;26371;56.992;23.912;2023-11-19T04:43:50;-0.50;99.90
40153;DHT22;26371;56.992;23.912;2023-11-19T04:46:19;-0.60;99.90
40153;DHT22;26371;56.992;23.912;2023-11-19T04:48:48;-0.50;99.90
40153;DHT22;26371;56.992;23.912;2023-11-19T04:51:16;-0.60;99.90
40153;DHT22;26371;56.992;23.912;2023-11-19T04:53:47;-0.60;99.90
40153;DHT22;26371;56.992;23.912;2023-11-19T04:56:15;-0.50;99.90
40153;DHT22;26371;56.992;23.912;2023-11-19T04:58:47;-0.50;99.90
40153;DHT22;26371;56.992;23.912;2023-11-19T05:01:15;-0.50;99.90
40153;DHT22;26371;56.992;23.912;2023-11-19T05:03:45;-0.50;99.90
40153;DHT22;26371;56.992;23.912;2023-11-19T05:06:14;-0.50;99.90
40153;DHT22;26371;56.992;23.912;2023-11-19T05:08:43;-0.60;99.90
40153;DHT22;26371;56.992;23.912;2023-11-19T05:11:14;-0.60;99.90
40153;DHT22;26371;56.992;23.912;2023-11-19T05:13:45;-0.60;99.90
40153;DHT22;26371;56.992;23.912;2023-11-19T05:16:14;-0.60;99.90
40153;DHT22;26371;56.992;23.912;2023-11-19T05:18:43;-0.60;99.90
40153;DHT22;26371;56.992;23.912;2023-11-19T05:21:12;-0.60;99.90
40153;DHT22;26371;56.992;23.912;2023-11-19T05:23:41;-0.60;99.90
40153;DHT22;26371;56.992;23.912;2023-11-19T05:26:16;-0.60;99.90
40153;DHT22;26371;56.992;23.912;2023-11-19T05:28:46;-0.60;99.90
40153;DHT22;26371;56.992;23.912;2023-11-19T05:31:16;-0.60;99.90
40153;DHT22;26371;56.992;23.912;2023-11-19T05:33:46;-0.60;99.90
40153;DHT22;26371;56.992;23.912;2023-11-19T05:36:15;-0.60;99.90
40153;DHT22;26371;56.992;23.912;2023-11-19T05:38:44;-0.60;99.90
40153;DHT22;26371;56.992;23.912;2023-11-19T05:41:13;-0.50;99.90
40153;DHT22;26371;56.992;23.912;2023-11-19T05:43:42;-0.50;99.90
40153;DHT22;26371;56.992;23.912;2023-11-19T05:46:12;-0.60;99.90
40153;DHT22;26371;56.992;23.912;2023-11-19T05:48:44;-0.50;99.90
40153;DHT22;26371;56.992;23.912;2023-11-19T05:51:14;-0.50;99.90
40153;DHT22;26371;56.992;23.912;2023-11-19T05:53:43;-0.50;99.90
40153;DHT22;26371;56.992;23.912;2023-11-19T05:56:13;-0.50;99.90
40153;DHT22;26371;56.992;23.912;2023-11-19T05:58:43;-0.50;99.90
40153;DHT22;26371;56.992;23.912;2023-11-19T06:01:14;-0.50;99.90
40153;DHT22;26371;56.992;23.912;2023-11-19T06:03:42;-0.50;99.90
40153;DHT22;26371;56.992;23.912;2023-11-19T06:06:15;-0.50;99.90
40153;DHT22;26371;56.992;23.912;2023-11-19T06:08:43;-0.50;99.90
40153;DHT22;26371;56.992;23.912;2023-11-19T06:11:11;-0.50;99.90
40153;DHT22;26371;56.992;23.912;2023-11-19T06:13:45;-0.50;99.90
40153;DHT22;26371;56.992;23.912;2023-11-19T06:16:16;-0.50;99.90
40153;DHT22;26371;56.992;23.912;2023-11-19T06:18:45;-0.40;99.90
40153;DHT22;26371;56.992;23.912;2023-11-19T06:21:14;-0.40;99.90
40153;DHT22;26371;56.992;23.912;2023-11-19T06:23:43;-0.40;99.90
40153;DHT22;26371;56.992;23.912;2023-11-19T06:26:12;-0.50;99.90
40153;DHT22;26371;56.992;23.912;2023-11-19T06:28:41;-0.50;99.90
40153;DHT22;26371;56.992;23.912;2023-11-19T06:31:10;-0.40;99.90
40153;DHT22;26371;56.992;23.912;2023-11-19T06:33:40;-0.40;99.90
40153;DHT22;26371;56.992;23.912;2023-11-19T06:36:09;-0.40;99.90
40153;DHT22;26371;56.992;23.912;2023-11-19T06:38:38;-0.40;99.90
40153;DHT22;26371;56.992;23.912;2023-11-19T06:41:08;-0.40;99.90
40153;DHT22;26371;56.992;23.912;2023-11-19T06:43:37;-0.40;99.90
40153;DHT22;26371;56.992;23.912;2023-11-19T06:46:15;-0.40;99.90
40153;DHT22;26371;56.992;23.912;2023-11-19T06:48:45;-0.40;99.90
40153;DHT22;26371;56.992;23.912;2023-11-19T06:51:16;-0.40;99.90
40153;DHT22;26371;56.992;23.912;2023-11-19T06:53:44;-0.30;99.90
40153;DHT22;26371;56.992;23.912;2023-11-19T06:56:20;-0.30;99.90
40153;DHT22;26371;56.992;23.912;2023-11-19T06:58:50;-0.30;99.90
40153;DHT22;26371;56.992;23.912;2023-11-19T07:01:19;-0.30;99.90
40153;DHT22;26371;56.992;23.912;2023-11-19T07:03:49;-0.30;99.90
40153;DHT22;26371;56.992;23.912;2023-11-19T07:06:18;-0.30;99.90
40153;DHT22;26371;56.992;23.912;2023-11-19T07:09:01;-0.40;99.90
40153;DHT22;26371;56.992;23.912;2023-11-19T07:11:37;-0.30;99.90
40153;DHT22;26371;56.992;23.912;2023-11-19T07:14:07;-0.30;99.90
40153;DHT22;26371;56.992;23.912;2023-11-19T07:16:36;-0.30;99.90
40153;DHT22;26371;56.992;23.912;2023-11-19T07:19:07;-0.30;99.90
40153;DHT22;26371;56.992;23.912;2023-11-19T07:21:36;-0.30;99.90
40153;DHT22;26371;56.992;23.912;2023-11-19T07:24:07;-0.30;99.90
40153;DHT22;26371;56.992;23.912;2023-11-19T07:26:36;-0.20;99.90
40153;DHT22;26371;56.992;23.912;2023-11-19T07:29:04;-0.20;99.90
40153;DHT22;26371;56.992;23.912;2023-11-19T07:31:36;-0.20;99.90
40153;DHT22;26371;56.992;23.912;2023-11-19T07:34:06;-0.20;99.90
40153;DHT22;26371;56.992;23.912;2023-11-19T07:36:36;-0.20;99.90
40153;DHT22;26371;56.992;23.912;2023-11-19T07:39:05;-0.20;99.90
40153;DHT22;26371;56.992;23.912;2023-11-19T07:41:34;-0.20;99.90
40153;DHT22;26371;56.992;23.912;2023-11-19T07:44:05;-0.20;99.90
40153;DHT22;26371;56.992;23.912;2023-11-19T07:46:34;-0.20;99.90
40153;DHT22;26371;56.992;23.912;2023-11-19T07:49:03;-0.10;99.90
40153;DHT22;26371;56.992;23.912;2023-11-19T07:51:33;-0.10;99.90
40153;DHT22;26371;56.992;23.912;2023-11-19T07:54:02;-0.20;99.90
40153;DHT22;26371;56.992;23.912;2023-11-19T07:56:32;-0.10;99.90
40153;DHT22;26371;56.992;23.912;2023-11-19T07:59:01;-0.10;99.90
40153;DHT22;26371;56.992;23.912;2023-11-19T08:01:30;-0.10;99.90
40153;DHT22;26371;56.992;23.912;2023-11-19T08:03:59;0.00;99.90
40153;DHT22;26371;56.992;23.912;2023-11-19T08:06:29;0.00;99.90
40153;DHT22;26371;56.992;23.912;2023-11-19T08:08:59;0.00;99.90
40153;DHT22;26371;56.992;23.912;2023-11-19T08:11:28;-0.10;99.90
40153;DHT22;26371;56.992;23.912;2023-11-19T08:13:57;-0.10;99.90
40153;DHT22;26371;56.992;23.912;2023-11-19T08:16:26;0.00;99.90
40153;DHT22;26371;56.992;23.912;2023-11-19T08:18:54;-0.10;99.90
40153;DHT22;26371;56.992;23.912;2023-11-19T08:21:25;-0.10;99.90
40153;DHT22;26371;56.992;23.912;2023-11-19T08:23:54;0.00;99.90
40153;DHT22;26371;56.992;23.912;2023-11-19T08:26:24;-0.10;99.90
40153;DHT22;26371;56.992;23.912;2023-11-19T08:28:53;-0.10;99.90
40153;DHT22;26371;56.992;23.912;2023-11-19T08:31:22;-0.10;99.90
40153;DHT22;26371;56.992;23.912;2023-11-19T08:33:50;0.00;99.90
40153;DHT22;26371;56.992;23.912;2023-11-19T08:36:19;0.00;99.90
40153;DHT22;26371;56.992;23.912;2023-11-19T08:38:48;0.00;99.90
40153;DHT22;26371;56.992;23.912;2023-11-19T08:41:16;0.00;99.90
40153;DHT22;26371;56.992;23.912;2023-11-19T08:43:47;0.00;99.90
40153;DHT22;26371;56.992;23.912;2023-11-19T08:46:16;0.10;99.90
40153;DHT22;26371;56.992;23.912;2023-11-19T08:48:44;0.10;99.90
40153;DHT22;26371;56.992;23.912;2023-11-19T08:51:13;0.10;99.90
40153;DHT22;26371;56.992;23.912;2023-11-19T08:53:42;0.10;99.90
40153;DHT22;26371;56.992;23.912;2023-11-19T08:56:11;0.10;99.90
40153;DHT22;26371;56.992;23.912;2023-11-19T08:58:41;0.10;99.90
40153;DHT22;26371;56.992;23.912;2023-11-19T09:01:11;0.10;99.90
40153;DHT22;26371;56.992;23.912;2023-11-19T09:03:39;0.10;99.90
40153;DHT22;26371;56.992;23.912;2023-11-19T09:06:09;0.20;99.90
40153;DHT22;26371;56.992;23.912;2023-11-19T09:08:37;0.20;99.90
40153;DHT22;26371;56.992;23.912;2023-11-19T09:11:07;0.20;99.90
40153;DHT22;26371;56.992;23.912;2023-11-19T09:13:36;0.20;99.90
40153;DHT22;26371;56.992;23.912;2023-11-19T09:16:06;0.20;99.90
40153;DHT22;26371;56.992;23.912;2023-11-19T09:18:37;0.20;99.90
40153;DHT22;26371;56.992;23.912;2023-11-19T09:21:06;0.20;99.90
40153;DHT22;26371;56.992;23.912;2023-11-19T09:23:35;0.20;99.90
40153;DHT22;26371;56.992;23.912;2023-11-19T09:26:08;0.20;99.90
40153;DHT22;26371;56.992;23.912;2023-11-19T09:28:37;0.30;99.90
40153;DHT22;26371;56.992;23.912;2023-11-19T09:31:13;0.30;99.90
40153;DHT22;26371;56.992;23.912;2023-11-19T09:33:43;0.30;99.90
40153;DHT22;26371;56.992;23.912;2023-11-19T09:36:13;0.30;99.90
40153;DHT22;26371;56.992;23.912;2023-11-19T09:38:44;0.30;99.90
40153;DHT22;26371;56.992;23.912;2023-11-19T09:41:13;0.30;99.90
40153;DHT22;26371;56.992;23.912;2023-11-19T09:43:42;0.40;99.90
40153;DHT22;26371;56.992;23.912;2023-11-19T09:46:13;0.40;99.90
40153;DHT22;26371;56.992;23.912;2023-11-19T09:48:44;0.40;99.90
40153;DHT22;26371;56.992;23.912;2023-11-19T09:51:15;0.40;99.90
40153;DHT22;26371;56.992;23.912;2023-11-19T09:53:44;0.40;99.90
40153;DHT22;26371;56.992;23.912;2023-11-19T09:56:13;0.40;99.90
40153;DHT22;26371;56.992;23.912;2023-11-19T09:58:44;0.40;99.90
40153;DHT22;26371;56.992;23.912;2023-11-19T10:01:14;0.40;99.90
40153;DHT22;26371;56.992;23.912;2023-11-19T10:03:48;0.40;99.90
40153;DHT22;26371;56.992;23.912;2023-11-19T10:06:18;0.50;99.90
40153;DHT22;26371;56.992;23.912;2023-11-19T10:08:47;0.50;99.90
40153;DHT22;26371;56.992;23.912;2023-11-19T10:11:17;0.50;99.90
40153;DHT22;26371;56.992;23.912;2023-11-19T10:13:46;0.50;99.90
40153;DHT22;26371;56.992;23.912;2023-11-19T10:16:15;0.50;99.90
40153;DHT22;26371;56.992;23.912;2023-11-19T10:18:50;0.50;99.90
40153;DHT22;26371;56.992;23.912;2023-11-19T10:21:19;0.50;99.90
40153;DHT22;26371;56.992;23.912;2023-11-19T10:23:48;0.50;99.90
40153;DHT22;26371;56.992;23.912;2023-11-19T10:26:20;0.50;99.90
40153;DHT22;26371;56.992;23.912;2023-11-19T10:28:49;0.50;99.90
40153;DHT22;26371;56.992;23.912;2023-11-19T10:31:19;0.50;99.90
40153;DHT22;26371;56.992;23.912;2023-11-19T10:33:53;0.50;99.90
40153;DHT22;26371;56.992;23.912;2023-11-19T10:36:22;0.50;99.90
40153;DHT22;26371;56.992;23.912;2023-11-19T10:38:52;0.60;99.90
40153;DHT22;26371;56.992;23.912;2023-11-19T10:41:27;0.60;99.90
40153;DHT22;26371;56.992;23.912;2023-11-19T10:43:56;0.60;99.90
40153;DHT22;26371;56.992;23.912;2023-11-19T10:46:36;0.60;99.90
40153;DHT22;26371;56.992;23.912;2023-11-19T10:49:08;0.70;99.90
40153;DHT22;26371;56.992;23.912;2023-11-19T10:51:44;0.70;99.90
40153;DHT22;26371;56.992;23.912;2023-11-19T10:54:16;0.70;99.90
40153;DHT22;26371;56.992;23.912;2023-11-19T10:56:55;0.70;99.90
40153;DHT22;26371;56.992;23.912;2023-11-19T10:59:29;0.70;99.90
40153;DHT22;26371;56.992;23.912;2023-11-19T11:02:03;0.70;99.90
40153;DHT22;26371;56.992;23.912;2023-11-19T11:04:40;0.70;99.90
40153;DHT22;26371;56.992;23.912;2023-11-19T11:07:10;0.60;99.90
40153;DHT22;26371;56.992;23.912;2023-11-19T11:09:39;0.60;99.90
40153;DHT22;26371;56.992;23.912;2023-11-19T11:12:10;0.70;99.90
40153;DHT22;26371;56.992;23.912;2023-11-19T11:14:38;0.70;99.90
40153;DHT22;26371;56.992;23.912;2023-11-19T11:17:09;0.70;99.90
40153;DHT22;26371;56.992;23.912;2023-11-19T11:19:42;0.70;99.90
40153;DHT22;26371;56.992;23.912;2023-11-19T11:22:12;0.70;99.90
40153;DHT22;26371;56.992;23.912;2023-11-19T11:25:01;0.70;99.90
40153;DHT22;26371;56.992;23.912;2023-11-19T11:27:48;0.60;99.90
40153;DHT22;26371;56.992;23.912;2023-11-19T11:30:28;0.60;99.90
40153;DHT22;26371;56.992;23.912;2023-11-19T11:33:06;0.70;99.90
40153;DHT22;26371;56.992;23.912;2023-11-19T11:35:48;0.70;99.90
40153;DHT22;26371;56.992;23.912;2023-11-19T11:38:22;0.70;99.90
40153;DHT22;26371;56.992;23.912;2023-11-19T11:41:15;0.70;99.90
40153;DHT22;26371;56.992;23.912;2023-11-19T11:43:45;0.70;99.90
40153;DHT22;26371;56.992;23.912;2023-11-19T11:49:28;0.80;99.90
40153;DHT22;26371;56.992;23.912;2023-11-19T11:52:01;0.80;99.90
40153;DHT22;26371;56.992;23.912;2023-11-19T11:54:31;0.80;99.90
40153;DHT22;26371;56.992;23.912;2023-11-19T11:57:10;0.80;99.90
40153;DHT22;26371;56.992;23.912;2023-11-19T11:59:48;0.80;99.90
40153;DHT22;26371;56.992;23.912;2023-11-19T12:02:18;0.70;99.90
40153;DHT22;26371;56.992;23.912;2023-11-19T12:04:49;0.70;99.90
40153;DHT22;26371;56.992;23.912;2023-11-19T12:07:22;0.70;99.90
40153;DHT22;26371;56.992;23.912;2023-11-19T12:09:53;0.80;99.90
40153;DHT22;26371;56.992;23.912;2023-11-19T12:12:27;0.80;99.90
40153;DHT22;26371;56.992;23.912;2023-11-19T12:15:07;0.80;99.90
40153;DHT22;26371;56.992;23.912;2023-11-19T12:17:47;0.80;99.90
40153;DHT22;26371;56.992;23.912;2023-11-19T12:20:20;0.80;99.90
40153;DHT22;26371;56.992;23.912;2023-11-19T12:22:54;0.70;99.90
40153;DHT22;26371;56.992;23.912;2023-11-19T12:25:23;0.70;99.90
40153;DHT22;26371;56.992;23.912;2023-11-19T12:27:52;0.80;99.90
40153;DHT22;26371;56.992;23.912;2023-11-19T12:30:22;0.70;99.90
40153;DHT22;26371;56.992;23.912;2023-11-19T12:32:53;0.80;99.90
40153;DHT22;26371;56.992;23.912;2023-11-19T12:35:22;0.80;99.90
40153;DHT22;26371;56.992;23.912;2023-11-19T12:37:53;0.80;99.90
40153;DHT22;26371;56.992;23.912;2023-11-19T12:40:23;0.90;99.90
40153;DHT22;26371;56.992;23.912;2023-11-19T12:42:52;0.90;99.90
40153;DHT22;26371;56.992;23.912;2023-11-19T12:45:22;0.80;99.90
40153;DHT22;26371;56.992;23.912;2023-11-19T12:48:04;0.80;99.90
40153;DHT22;26371;56.992;23.912;2023-11-19T12:50:51;0.70;99.90
40153;DHT22;26371;56.992;23.912;2023-11-19T12:53:22;0.70;99.90
40153;DHT22;26371;56.992;23.912;2023-11-19T12:55:52;0.70;99.90
40153;DHT22;26371;56.992;23.912;2023-11-19T12:58:29;0.70;99.90
40153;DHT22;26371;56.992;23.912;2023-11-19T13:01:02;0.70;99.90
40153;DHT22;26371;56.992;23.912;2023-11-19T13:03:31;0.60;99.90
40153;DHT22;26371;56.992;23.912;2023-11-19T13:06:04;0.60;99.90
40153;DHT22;26371;56.992;23.912;2023-11-19T13:08:40;0.60;99.90
40153;DHT22;26371;56.992;23.912;2023-11-19T13:11:09;0.60;99.90
40153;DHT22;26371;56.992;23.912;2023-11-19T13:13:57;0.60;99.90
40153;DHT22;26371;56.992;23.912;2023-11-19T13:16:27;0.60;99.90
40153;DHT22;26371;56.992;23.912;2023-11-19T13:18:56;0.60;99.90
40153;DHT22;26371;56.992;23.912;2023-11-19T13:21:26;0.70;99.90
40153;DHT22;26371;56.992;23.912;2023-11-19T13:23:56;0.70;99.90
40153;DHT22;26371;56.992;23.912;2023-11-19T13:26:25;0.70;99.90
40153;DHT22;26371;56.992;23.912;2023-11-19T13:28:53;0.60;99.90
40153;DHT22;26371;56.992;23.912;2023-11-19T13:31:22;0.60;99.90
40153;DHT22;26371;56.992;23.912;2023-11-19T13:33:51;0.60;99.90
40153;DHT22;26371;56.992;23.912;2023-11-19T13:36:20;0.60;99.90
40153;DHT22;26371;56.992;23.912;2023-11-19T13:38:49;0.60;99.90
40153;DHT22;26371;56.992;23.912;2023-11-19T13:41:20;0.60;99.90
40153;DHT22;26371;56.992;23.912;2023-11-19T13:43:49;0.50;99.90
40153;DHT22;26371;56.992;23.912;2023-11-19T13:46:17;0.50;99.90
40153;DHT22;26371;56.992;23.912;2023-11-19T13:48:47;0.50;99.90
40153;DHT22;26371;56.992;23.912;2023-11-19T13:51:17;0.50;99.90
40153;DHT22;26371;56.992;23.912;2023-11-19T13:53:45;0.50;99.90
40153;DHT22;26371;56.992;23.912;2023-11-19T13:56:18;0.50;99.90
40153;DHT22;26371;56.992;23.912;2023-11-19T13:58:47;0.50;99.90
40153;DHT22;26371;56.992;23.912;2023-11-19T14:01:16;0.40;99.90
40153;DHT22;26371;56.992;23.912;2023-11-19T14:03:45;0.50;99.90
40153;DHT22;26371;56.992;23.912;2023-11-19T14:06:14;0.50;99.90
40153;DHT22;26371;56.992;23.912;2023-11-19T14:08:43;0.40;99.90
40153;DHT22;26371;56.992;23.912;2023-11-19T14:11:12;0.40;99.90
40153;DHT22;26371;56.992;23.912;2023-11-19T14:13:42;0.30;99.90
40153;DHT22;26371;56.992;23.912;2023-11-19T14:16:10;0.30;99.90
40153;DHT22;26371;56.992;23.912;2023-11-19T14:18:40;0.20;99.90
40153;DHT22;26371;56.992;23.912;2023-11-19T14:21:08;0.20;99.90
40153;DHT22;26371;56.992;23.912;2023-11-19T14:23:37;0.20;99.90
40153;DHT22;26371;56.992;23.912;2023-11-19T14:26:06;0.10;99.90
40153;DHT22;26371;56.992;23.912;2023-11-19T14:28:35;0.10;99.90
40153;DHT22;26371;56.992;23.912;2023-11-19T14:31:23;0.10;99.90
40153;DHT22;26371;56.992;23.912;2023-11-19T14:33:53;0.10;99.90
40153;DHT22;26371;56.992;23.912;2023-11-19T14:36:23;0.10;99.90
40153;DHT22;26371;56.992;23.912;2023-11-19T14:38:52;0.00;99.90
40153;DHT22;26371;56.992;23.912;2023-11-19T14:41:21;-0.10;99.90
40153;DHT22;26371;56.992;23.912;2023-11-19T14:43:50;-0.10;99.90
40153;DHT22;26371;56.992;23.912;2023-11-19T14:46:18;-0.20;99.90
40153;DHT22;26371;56.992;23.912;2023-11-19T14:48:49;-0.20;99.90
40153;DHT22;26371;56.992;23.912;2023-11-19T14:51:19;-0.20;99.90
40153;DHT22;26371;56.992;23.912;2023-11-19T14:53:48;-0.30;99.90
40153;DHT22;26371;56.992;23.912;2023-11-19T14:56:16;-0.40;99.90
40153;DHT22;26371;56.992;23.912;2023-11-19T14:58:45;-0.40;99.90
40153;DHT22;26371;56.992;23.912;2023-11-19T15:01:14;-0.50;99.90
40153;DHT22;26371;56.992;23.912;2023-11-19T15:03:44;-0.50;99.90
40153;DHT22;26371;56.992;23.912;2023-11-19T15:06:17;-0.50;99.90
40153;DHT22;26371;56.992;23.912;2023-11-19T15:08:46;-0.60;99.90
40153;DHT22;26371;56.992;23.912;2023-11-19T15:11:15;-0.60;99.90
40153;DHT22;26371;56.992;23.912;2023-11-19T15:13:43;-0.60;99.90
40153;DHT22;26371;56.992;23.912;2023-11-19T15:16:12;-0.60;99.90
40153;DHT22;26371;56.992;23.912;2023-11-19T15:18:41;-0.60;99.90
40153;DHT22;26371;56.992;23.912;2023-11-19T15:21:10;-0.60;99.90
40153;DHT22;26371;56.992;23.912;2023-11-19T15:23:41;-0.70;99.90
40153;DHT22;26371;56.992;23.912;2023-11-19T15:26:10;-0.70;99.90
40153;DHT22;26371;56.992;23.912;2023-11-19T15:28:39;-0.70;99.90
40153;DHT22;26371;56.992;23.912;2023-11-19T15:31:08;-0.70;99.90
40153;DHT22;26371;56.992;23.912;2023-11-19T15:33:37;-0.70;99.90
40153;DHT22;26371;56.992;23.912;2023-11-19T15:36:07;-0.70;99.90
40153;DHT22;26371;56.992;23.912;2023-11-19T15:38:36;-0.70;99.90
40153;DHT22;26371;56.992;23.912;2023-11-19T15:41:09;-0.70;99.90
40153;DHT22;26371;56.992;23.912;2023-11-19T15:43:40;-0.80;99.90
40153;DHT22;26371;56.992;23.912;2023-11-19T15:46:09;-0.80;99.90